Time;durP1;ratioP1;P1;durP2;ratioP2;P2;SDS_P1;SDS_P2;PMS_P1;PMS_P2;Temp;Humidity;BMP_temperature;BMP_pressure;BME280_temperature;BME280_humidity;BME280_pressure;Samples;Min_cycle;Max_cycle;Signal;HPM_P1;HPM_P2
2023/09/30 00:00:08;;;;;;;;;0.00;0.00;;;;;;;;5078254;28;9790;-76
2023/09/30 00:02:35;;;;;;;;;1.00;1.00;;;;;;;;5072421;28;9722;-77
2023/09/30 00:05:04;;;;;;;;;1.25;1.25;;;;;;;;5072228;28;9723;-78
2023/09/30 00:07:33;;;;;;;;;1.25;1.25;;;;;;;;5062362;28;9812;-77
2023/09/30 00:10:00;;;;;;;;;0.25;0.25;;;;;;;;5068997;28;9694;-77
2023/09/30 00:12:27;;;;;;;;;1.00;1.00;;;;;;;;5069203;28;9762;-81
2023/09/30 00:14:55;;;;;;;;;1.00;1.00;;;;;;;;5067809;28;9826;-81
2023/09/30 00:17:22;;;;;;;;;2.50;1.25;;;;;;;;5068597;28;9752;-81
2023/09/30 00:19:49;;;;;;;;;0.50;0.50;;;;;;;;5068193;28;9879;-77
2023/09/30 00:22:18;;;;;;;;;1.50;1.50;;;;;;;;5069471;28;9687;-76
2023/09/30 00:24:45;;;;;;;;;2.00;0.75;;;;;;;;5067930;28;9913;-77
2023/09/30 00:27:12;;;;;;;;;1.00;1.00;;;;;;;;5068200;28;9788;-78
2023/09/30 00:29:39;;;;;;;;;1.50;0.50;;;;;;;;5067846;28;9848;-77
2023/09/30 00:32:06;;;;;;;;;1.00;1.00;;;;;;;;5067918;28;9767;-76
2023/09/30 00:34:34;;;;;;;;;1.00;1.00;;;;;;;;5067423;28;9938;-77
2023/09/30 00:37:04;;;;;;;;;1.00;0.00;;;;;;;;5068261;28;10010;-77
2023/09/30 00:39:37;;;;;;;;;1.25;1.00;;;;;;;;5068133;28;9840;-78
2023/09/30 00:42:04;;;;;;;;;1.00;1.00;;;;;;;;5069068;28;10001;-78
2023/09/30 00:44:32;;;;;;;;;2.75;1.50;;;;;;;;5067768;28;9959;-76
2023/09/30 00:46:59;;;;;;;;;5.00;1.00;;;;;;;;5068158;28;9874;-76
2023/09/30 00:49:29;;;;;;;;;1.50;1.00;;;;;;;;5067867;28;10014;-76
2023/09/30 00:51:57;;;;;;;;;1.00;1.00;;;;;;;;5069169;28;9928;-77
2023/09/30 00:54:25;;;;;;;;;2.00;2.00;;;;;;;;5069563;28;10683;-77
2023/09/30 00:56:56;;;;;;;;;2.25;1.00;;;;;;;;5067515;28;9828;-76
2023/09/30 00:59:25;;;;;;;;;0.00;0.00;;;;;;;;5068241;28;9993;-77
2023/09/30 01:01:52;;;;;;;;;1.00;1.00;;;;;;;;5067295;28;9703;-77
2023/09/30 01:04:20;;;;;;;;;1.00;1.00;;;;;;;;5068028;28;9957;-76
2023/09/30 01:06:48;;;;;;;;;1.75;1.75;;;;;;;;5067337;28;10639;-77
2023/09/30 01:09:16;;;;;;;;;1.00;1.00;;;;;;;;5067866;28;9906;-77
2023/09/30 01:11:44;;;;;;;;;2.00;1.00;;;;;;;;5067688;28;9863;-77
2023/09/30 01:14:29;;;;;;;;;1.00;1.00;;;;;;;;5067453;28;10101;-77
2023/09/30 01:16:57;;;;;;;;;1.50;1.00;;;;;;;;5069297;28;9947;-77
2023/09/30 01:19:25;;;;;;;;;2.00;0.75;;;;;;;;5071492;28;10151;-77
2023/09/30 01:21:56;;;;;;;;;1.75;1.75;;;;;;;;5071175;28;10068;-77
2023/09/30 01:24:23;;;;;;;;;3.00;1.25;;;;;;;;5071728;28;10016;-77
2023/09/30 01:26:50;;;;;;;;;1.25;1.00;;;;;;;;5070875;28;9964;-77
2023/09/30 01:29:17;;;;;;;;;1.50;1.50;;;;;;;;5071681;28;10023;-76
2023/09/30 01:31:47;;;;;;;;;1.75;1.75;;;;;;;;5070215;28;9967;-78
2023/09/30 01:34:15;;;;;;;;;3.50;1.00;;;;;;;;5070080;28;10107;-77
2023/09/30 01:36:42;;;;;;;;;3.50;2.00;;;;;;;;5071276;28;9967;-77
2023/09/30 01:39:11;;;;;;;;;2.50;1.00;;;;;;;;5070732;28;10003;-76
2023/09/30 01:41:39;;;;;;;;;2.00;2.00;;;;;;;;5063257;28;10108;-77
2023/09/30 01:44:06;;;;;;;;;1.00;1.00;;;;;;;;5074638;28;9908;-77
2023/09/30 01:46:33;;;;;;;;;1.50;1.25;;;;;;;;5074854;28;9956;-76
2023/09/30 01:49:01;;;;;;;;;2.50;1.00;;;;;;;;5074828;28;9960;-77
2023/09/30 01:51:31;;;;;;;;;2.00;2.00;;;;;;;;5075879;28;9992;-81
2023/09/30 01:53:58;;;;;;;;;2.00;2.00;;;;;;;;5072744;28;10166;-79
2023/09/30 01:56:27;;;;;;;;;2.00;2.00;;;;;;;;5070985;28;9853;-78
2023/09/30 01:58:54;;;;;;;;;1.50;1.50;;;;;;;;5070723;28;9920;-80
2023/09/30 02:01:21;;;;;;;;;1.00;1.00;;;;;;;;5070763;28;9977;-78
2023/09/30 02:03:49;;;;;;;;;1.75;1.00;;;;;;;;5070592;28;10140;-77
2023/09/30 02:06:16;;;;;;;;;1.00;1.00;;;;;;;;5071030;28;9931;-77
2023/09/30 02:08:44;;;;;;;;;2.00;2.00;;;;;;;;5069729;28;9845;-79
2023/09/30 02:11:13;;;;;;;;;5.75;2.00;;;;;;;;5071115;28;9852;-76
2023/09/30 02:13:42;;;;;;;;;3.00;2.00;;;;;;;;5069447;28;10044;-80
2023/09/30 02:16:13;;;;;;;;;3.00;3.00;;;;;;;;5070618;28;10009;-81
2023/09/30 02:18:41;;;;;;;;;2.25;2.25;;;;;;;;5070304;28;10029;-76
2023/09/30 02:21:09;;;;;;;;;4.25;2.75;;;;;;;;5070857;28;10123;-79
2023/09/30 02:23:36;;;;;;;;;2.50;2.50;;;;;;;;5070502;28;10076;-76
2023/09/30 02:26:04;;;;;;;;;3.00;3.00;;;;;;;;5070427;28;10869;-78
2023/09/30 02:28:32;;;;;;;;;2.00;2.00;;;;;;;;5069853;28;10260;-77
2023/09/30 02:31:03;;;;;;;;;3.00;3.00;;;;;;;;5060057;28;10216;-77
2023/09/30 02:33:35;;;;;;;;;3.00;3.00;;;;;;;;5070449;28;10247;-77
2023/09/30 02:36:05;;;;;;;;;3.00;3.00;;;;;;;;5070065;28;10781;-76
2023/09/30 02:38:32;;;;;;;;;1.50;1.50;;;;;;;;5069367;28;10242;-76
2023/09/30 02:40:59;;;;;;;;;2.25;2.00;;;;;;;;5070372;28;10149;-77
2023/09/30 02:43:27;;;;;;;;;2.00;2.00;;;;;;;;5070613;28;10187;-79
2023/09/30 02:45:54;;;;;;;;;1.00;1.00;;;;;;;;5072189;28;10029;-76
2023/09/30 02:48:23;;;;;;;;;2.25;2.25;;;;;;;;5071456;28;10123;-76
2023/09/30 02:50:50;;;;;;;;;1.25;1.25;;;;;;;;5070214;28;10286;-76
2023/09/30 02:53:18;;;;;;;;;3.25;3.25;;;;;;;;5070340;28;10161;-77
2023/09/30 02:55:47;;;;;;;;;2.00;2.00;;;;;;;;5067269;28;10166;-76
2023/09/30 02:58:14;;;;;;;;;3.00;3.00;;;;;;;;5069725;28;10213;-77
2023/09/30 03:00:41;;;;;;;;;2.00;2.00;;;;;;;;5068279;28;10940;-80
2023/09/30 03:03:10;;;;;;;;;3.00;1.25;;;;;;;;5069943;28;10327;-77
2023/09/30 03:05:38;;;;;;;;;4.00;4.00;;;;;;;;5066565;28;10189;-76
2023/09/30 03:08:06;;;;;;;;;4.50;3.00;;;;;;;;5069286;28;10269;-76
2023/09/30 03:10:34;;;;;;;;;3.00;3.00;;;;;;;;5069638;28;10147;-76
2023/09/30 03:13:01;;;;;;;;;3.75;3.50;;;;;;;;5069628;28;10294;-76
2023/09/30 03:15:30;;;;;;;;;3.00;3.00;;;;;;;;5067336;28;10261;-80
2023/09/30 03:17:58;;;;;;;;;2.00;0.25;;;;;;;;5069769;28;10159;-78
2023/09/30 03:20:26;;;;;;;;;0.25;0.25;;;;;;;;5070124;28;10191;-76
2023/09/30 03:22:54;;;;;;;;;1.75;1.75;;;;;;;;5069744;28;10027;-77
2023/09/30 03:25:22;;;;;;;;;4.50;3.00;;;;;;;;5071920;28;10181;-76
2023/09/30 03:27:49;;;;;;;;;1.00;1.00;;;;;;;;5072799;28;11170;-79
2023/09/30 03:30:19;;;;;;;;;2.00;2.00;;;;;;;;5072679;28;10017;-76
2023/09/30 03:32:47;;;;;;;;;4.00;4.00;;;;;;;;5073096;28;10151;-77
2023/09/30 03:35:16;;;;;;;;;2.25;2.00;;;;;;;;5072711;28;10299;-77
2023/09/30 03:37:44;;;;;;;;;4.00;4.00;;;;;;;;5071606;28;10235;-76
2023/09/30 03:40:14;;;;;;;;;5.50;3.00;;;;;;;;5065917;28;10168;-76
2023/09/30 03:42:43;;;;;;;;;3.75;3.00;;;;;;;;5068609;28;10335;-81
2023/09/30 03:45:10;;;;;;;;;4.00;4.00;;;;;;;;5068348;28;10392;-76
2023/09/30 03:47:38;;;;;;;;;4.25;3.00;;;;;;;;5066935;28;10249;-79
2023/09/30 03:50:12;;;;;;;;;8.50;4.75;;;;;;;;5068079;28;10111;-76
2023/09/30 03:52:40;;;;;;;;;1.00;1.00;;;;;;;;5068178;28;10297;-80
2023/09/30 03:55:07;;;;;;;;;3.75;2.50;;;;;;;;5067884;28;11005;-76
2023/09/30 03:57:36;;;;;;;;;1.75;1.75;;;;;;;;5067732;28;10392;-78
2023/09/30 04:00:07;;;;;;;;;3.00;3.00;;;;;;;;5067816;28;10351;-77
2023/09/30 04:02:34;;;;;;;;;5.25;4.00;;;;;;;;5067643;28;10263;-75
2023/09/30 04:05:04;;;;;;;;;1.25;1.00;;;;;;;;5068011;28;10369;-77
2023/09/30 04:07:32;;;;;;;;;3.00;3.00;;;;;;;;5068334;28;10471;-76
2023/09/30 04:10:01;;;;;;;;;4.50;4.50;;;;;;;;5068442;28;10241;-76
2023/09/30 04:12:28;;;;;;;;;4.25;3.75;;;;;;;;5068360;28;10495;-79
2023/09/30 04:14:58;;;;;;;;;3.00;3.00;;;;;;;;5076602;28;10503;-76
2023/09/30 04:17:26;;;;;;;;;3.25;3.25;;;;;;;;5067859;28;10470;-76
2023/09/30 04:19:53;;;;;;;;;4.00;4.00;;;;;;;;5064366;28;10814;-80
2023/09/30 04:22:22;;;;;;;;;3.25;3.25;;;;;;;;5067808;28;10470;-77
2023/09/30 04:24:50;;;;;;;;;12.25;6.75;;;;;;;;5067615;28;10369;-76
2023/09/30 04:27:17;;;;;;;;;3.00;2.00;;;;;;;;5067496;28;10760;-76
2023/09/30 04:29:44;;;;;;;;;2.75;2.75;;;;;;;;5067301;28;10421;-78
2023/09/30 04:32:13;;;;;;;;;3.50;2.75;;;;;;;;5067382;28;10308;-77
2023/09/30 04:34:40;;;;;;;;;3.75;3.75;;;;;;;;5067245;28;10306;-77
2023/09/30 04:37:09;;;;;;;;;2.00;2.00;;;;;;;;5067151;28;10304;-76
2023/09/30 04:39:36;;;;;;;;;3.50;3.00;;;;;;;;5064451;28;10252;-78
2023/09/30 04:42:04;;;;;;;;;4.00;3.75;;;;;;;;5067801;28;10295;-77
2023/09/30 04:44:31;;;;;;;;;8.25;5.00;;;;;;;;5067615;28;10196;-76
2023/09/30 04:47:00;;;;;;;;;4.25;3.75;;;;;;;;5067755;28;10375;-76
2023/09/30 04:49:28;;;;;;;;;4.00;4.00;;;;;;;;5057860;28;10169;-77
2023/09/30 04:51:56;;;;;;;;;3.00;3.00;;;;;;;;5068794;28;10462;-77
2023/09/30 04:54:23;;;;;;;;;2.75;2.75;;;;;;;;5072178;28;10210;-77
2023/09/30 04:56:53;;;;;;;;;3.00;3.00;;;;;;;;5070874;28;10067;-77
2023/09/30 04:59:20;;;;;;;;;3.00;3.00;;;;;;;;5072367;28;10237;-77
2023/09/30 05:01:47;;;;;;;;;1.75;1.75;;;;;;;;5071608;28;10030;-77
2023/09/30 05:04:14;;;;;;;;;2.00;2.00;;;;;;;;5073671;28;10005;-78
2023/09/30 05:06:43;;;;;;;;;2.75;2.75;;;;;;;;5074712;28;10036;-76
2023/09/30 05:09:10;;;;;;;;;1.25;1.25;;;;;;;;5075841;28;10244;-76
2023/09/30 05:11:37;;;;;;;;;1.25;1.25;;;;;;;;5075971;28;10245;-78
2023/09/30 05:14:05;;;;;;;;;2.25;2.25;;;;;;;;5076564;28;10086;-76
2023/09/30 05:16:32;;;;;;;;;2.50;2.50;;;;;;;;5075694;28;10244;-78
2023/09/30 05:19:00;;;;;;;;;2.75;2.75;;;;;;;;5074365;28;10261;-77
2023/09/30 05:21:27;;;;;;;;;1.25;1.25;;;;;;;;5070172;28;10278;-77
2023/09/30 05:23:56;;;;;;;;;3.00;1.00;;;;;;;;5070736;28;10316;-76
2023/09/30 05:26:23;;;;;;;;;1.25;1.00;;;;;;;;5069114;28;10183;-78
2023/09/30 05:28:50;;;;;;;;;2.00;2.00;;;;;;;;5070529;28;10336;-76
2023/09/30 05:31:17;;;;;;;;;2.00;2.00;;;;;;;;5076496;28;10298;-74
2023/09/30 05:33:45;;;;;;;;;1.25;1.25;;;;;;;;5070470;28;10136;-75
2023/09/30 05:36:14;;;;;;;;;1.00;1.00;;;;;;;;5070417;28;10377;-71
2023/09/30 05:38:41;;;;;;;;;1.75;1.75;;;;;;;;5068347;28;11118;-74
2023/09/30 05:41:11;;;;;;;;;1.00;1.00;;;;;;;;5069604;28;10336;-74
2023/09/30 05:43:38;;;;;;;;;1.50;1.50;;;;;;;;5070767;28;10420;-72
2023/09/30 05:46:08;;;;;;;;;1.00;1.00;;;;;;;;5071604;28;10309;-75
2023/09/30 05:48:35;;;;;;;;;1.75;1.75;;;;;;;;5069475;28;10452;-78
2023/09/30 05:51:05;;;;;;;;;2.00;2.00;;;;;;;;5068630;28;10355;-75
2023/09/30 05:53:33;;;;;;;;;2.00;2.00;;;;;;;;5070284;28;10661;-79
2023/09/30 05:56:00;;;;;;;;;2.75;2.75;;;;;;;;5070833;28;10397;-72
2023/09/30 05:58:29;;;;;;;;;3.00;2.00;;;;;;;;5069710;28;11187;-75
2023/09/30 06:00:56;;;;;;;;;2.50;2.50;;;;;;;;5070326;28;10414;-85
2023/09/30 06:03:23;;;;;;;;;2.75;2.75;;;;;;;;5069942;28;10301;-77
2023/09/30 06:05:52;;;;;;;;;6.50;3.00;;;;;;;;5070316;28;10378;-78
2023/09/30 06:08:19;;;;;;;;;3.00;3.00;;;;;;;;5069850;28;10467;-75
2023/09/30 06:10:46;;;;;;;;;3.50;3.00;;;;;;;;5070247;28;10459;-76
2023/09/30 06:13:15;;;;;;;;;4.00;4.00;;;;;;;;5069814;28;10516;-76
2023/09/30 06:15:46;;;;;;;;;3.75;3.00;;;;;;;;5070214;28;10622;-71
2023/09/30 06:18:15;;;;;;;;;4.75;2.00;;;;;;;;5066468;28;10466;-78
2023/09/30 06:20:42;;;;;;;;;3.75;2.25;;;;;;;;5069425;28;10594;-80
2023/09/30 06:23:10;;;;;;;;;2.50;2.50;;;;;;;;5066535;28;10437;-83
2023/09/30 06:25:37;;;;;;;;;4.00;4.00;;;;;;;;5069401;28;10429;-75
2023/09/30 06:28:08;;;;;;;;;2.25;2.25;;;;;;;;5070212;28;10479;-76
2023/09/30 06:30:37;;;;;;;;;3.25;3.25;;;;;;;;5067242;28;10249;-72
2023/09/30 06:33:11;;;;;;;;;4.25;3.00;;;;;;;;5068889;28;10314;-75
2023/09/30 06:35:50;;;;;;;;;6.00;2.75;;;;;;;;5069472;28;11246;-73
2023/09/30 06:38:18;;;;;;;;;1.00;1.00;;;;;;;;5065349;28;11175;-82
2023/09/30 06:40:47;;;;;;;;;3.00;3.00;;;;;;;;5068414;28;10415;-76
2023/09/30 06:43:15;;;;;;;;;3.00;3.00;;;;;;;;5078124;28;10282;-71
2023/09/30 06:45:43;;;;;;;;;3.50;3.50;;;;;;;;5069216;28;10247;-70
2023/09/30 06:48:12;;;;;;;;;5.50;4.00;;;;;;;;5070597;28;10174;-72
2023/09/30 06:50:41;;;;;;;;;7.25;4.00;;;;;;;;5070750;28;10078;-71
2023/09/30 06:53:09;;;;;;;;;3.25;3.25;;;;;;;;5070797;28;10198;-73
2023/09/30 06:55:38;;;;;;;;;5.75;3.50;;;;;;;;5068597;28;10031;-73
2023/09/30 06:58:07;;;;;;;;;4.00;4.00;;;;;;;;5072437;28;10188;-71
2023/09/30 07:00:35;;;;;;;;;5.00;4.00;;;;;;;;5070589;28;10127;-83
2023/09/30 07:03:05;;;;;;;;;5.75;5.75;;;;;;;;5070782;28;10388;-87
2023/09/30 07:05:34;;;;;;;;;3.75;3.75;;;;;;;;5070961;28;10394;-85
2023/09/30 07:08:02;;;;;;;;;4.00;4.00;;;;;;;;5072094;28;10538;-85
2023/09/30 07:10:30;;;;;;;;;3.75;3.75;;;;;;;;5070110;28;10290;-85
2023/09/30 07:12:57;;;;;;;;;3.25;3.25;;;;;;;;5070294;28;10276;-83
2023/09/30 07:15:24;;;;;;;;;5.50;4.00;;;;;;;;5068552;28;10042;-83
2023/09/30 07:17:51;;;;;;;;;2.50;2.50;;;;;;;;5078979;28;10713;-81
2023/09/30 07:20:19;;;;;;;;;4.50;4.50;;;;;;;;5059701;28;9934;-82
2023/09/30 07:22:48;;;;;;;;;7.75;5.50;;;;;;;;5068852;28;9848;-85
2023/09/30 07:25:16;;;;;;;;;5.25;5.25;;;;;;;;5069176;28;9857;-79
2023/09/30 07:27:44;;;;;;;;;6.00;6.00;;;;;;;;5068277;28;9865;-71
2023/09/30 07:30:14;;;;;;;;;5.25;5.25;;;;;;;;5068728;28;10551;-75
2023/09/30 07:32:43;;;;;;;;;7.25;7.25;;;;;;;;5068622;28;9852;-77
2023/09/30 07:35:11;;;;;;;;;6.75;5.50;;;;;;;;5069012;28;9898;-75
2023/09/30 07:37:38;;;;;;;;;13.75;13.75;;;;;;;;5068234;28;9851;-76
2023/09/30 07:40:08;;;;;;;;;10.00;8.25;;;;;;;;5066772;28;9944;-85
2023/09/30 07:42:35;;;;;;;;;9.50;9.50;;;;;;;;5068959;28;9878;-86
2023/09/30 07:45:04;;;;;;;;;9.00;7.00;;;;;;;;5068718;28;9865;-79
2023/09/30 07:47:33;;;;;;;;;11.25;9.00;;;;;;;;5066752;28;9776;-74
2023/09/30 07:50:06;;;;;;;;;10.50;8.25;;;;;;;;5068348;28;10197;-85
2023/09/30 07:52:33;;;;;;;;;10.75;10.75;;;;;;;;5068724;28;9696;-86
2023/09/30 07:55:00;;;;;;;;;9.50;9.50;;;;;;;;5068395;28;9822;-83
2023/09/30 07:57:29;;;;;;;;;9.75;9.75;;;;;;;;5068371;28;9611;-76
2023/09/30 07:59:56;;;;;;;;;12.50;11.50;;;;;;;;5068080;28;9587;-77
2023/09/30 08:02:24;;;;;;;;;9.25;8.00;;;;;;;;5057602;28;9522;-81
2023/09/30 08:04:53;;;;;;;;;8.00;6.00;;;;;;;;5067386;28;9627;-80
2023/09/30 08:07:20;;;;;;;;;6.67;6.67;;;;;;;;5065837;28;9309;-78
2023/09/30 08:09:49;;;;;;;;;8.67;6.67;;;;;;;;5067701;28;10171;-76
2023/09/30 08:12:18;;;;;;;;;7.00;5.33;;;;;;;;5067596;28;9442;-72
2023/09/30 08:14:47;;;;;;;;;5.00;4.00;;;;;;;;5067266;28;9164;-80
2023/09/30 08:17:14;;;;;;;;;3.67;3.67;;;;;;;;5067820;28;9534;-75
2023/09/30 08:19:41;;;;;;;;;5.33;4.00;;;;;;;;5065556;28;9015;-72
2023/09/30 08:22:09;;;;;;;;;4.00;4.00;;;;;;;;5067671;28;9027;-76
2023/09/30 08:24:36;;;;;;;;;5.00;4.00;;;;;;;;5067490;28;9008;-72
2023/09/30 08:27:04;;;;;;;;;4.75;4.75;;;;;;;;5068341;28;8950;-73
2023/09/30 08:29:31;;;;;;;;;5.00;5.00;;;;;;;;5069784;28;8993;-73
2023/09/30 08:31:59;;;;;;;;;4.75;3.00;;;;;;;;5070627;28;8822;-76
2023/09/30 08:34:26;;;;;;;;;4.00;4.00;;;;;;;;5070963;28;8850;-77
2023/09/30 08:36:53;;;;;;;;;4.50;4.50;;;;;;;;5071660;28;8835;-75
2023/09/30 08:39:21;;;;;;;;;8.00;5.00;;;;;;;;5069151;28;8842;-73
2023/09/30 08:41:48;;;;;;;;;4.75;4.00;;;;;;;;5070017;28;8843;-78
2023/09/30 08:44:15;;;;;;;;;3.25;1.75;;;;;;;;5062939;28;8867;-78
2023/09/30 08:46:45;;;;;;;;;1.25;1.25;;;;;;;;5067913;28;8865;-83
2023/09/30 08:49:33;;;;;;;;;5.00;3.50;;;;;;;;5069458;28;8850;-85
2023/09/30 08:52:00;;;;;;;;;4.00;4.00;;;;;;;;5067293;28;8916;-77
2023/09/30 08:54:27;;;;;;;;;4.00;4.00;;;;;;;;5067727;28;8889;-78
2023/09/30 08:56:57;;;;;;;;;6.00;5.75;;;;;;;;5066464;28;8984;-81
2023/09/30 08:59:25;;;;;;;;;4.75;4.50;;;;;;;;5068015;28;8890;-84
2023/09/30 09:01:55;;;;;;;;;9.00;7.00;;;;;;;;5065889;28;8838;-80
2023/09/30 09:04:24;;;;;;;;;5.50;3.75;;;;;;;;5068007;28;8855;-83
2023/09/30 09:06:52;;;;;;;;;7.00;7.00;;;;;;;;5066800;28;8912;-77
2023/09/30 09:09:22;;;;;;;;;6.25;5.50;;;;;;;;5067911;28;8850;-86
2023/09/30 09:11:49;;;;;;;;;4.00;4.00;;;;;;;;5064996;28;8833;-78
2023/09/30 09:14:16;;;;;;;;;5.25;5.25;;;;;;;;5065041;28;8965;-72
2023/09/30 09:16:56;;;;;;;;;7.25;5.00;;;;;;;;5067033;28;8870;-74
2023/09/30 09:19:25;;;;;;;;;3.25;2.50;;;;;;;;5064515;28;8950;-76
2023/09/30 09:21:57;;;;;;;;;4.50;2.00;;;;;;;;5053990;28;8885;-73
2023/09/30 09:24:34;;;;;;;;;2.00;2.00;;;;;;;;5066996;28;8981;-81
2023/09/30 09:27:11;;;;;;;;;2.75;2.75;;;;;;;;5067345;28;8859;-76
2023/09/30 09:29:39;;;;;;;;;3.00;1.00;;;;;;;;5064716;28;8847;-74
2023/09/30 09:32:10;;;;;;;;;4.00;2.00;;;;;;;;5066275;28;8799;-78
2023/09/30 09:34:39;;;;;;;;;1.00;0.75;;;;;;;;5065555;28;9673;-75
2023/09/30 09:37:16;;;;;;;;;1.50;1.50;;;;;;;;5067400;28;8898;-78
2023/09/30 09:39:54;;;;;;;;;3.50;3.50;;;;;;;;5059443;28;8866;-71
2023/09/30 09:42:30;;;;;;;;;4.00;2.75;;;;;;;;5070006;28;8851;-72
2023/09/30 09:45:00;;;;;;;;;4.50;2.75;;;;;;;;5070371;28;8863;-73
2023/09/30 09:47:28;;;;;;;;;1.25;1.25;;;;;;;;5070340;28;8858;-77
2023/09/30 09:50:01;;;;;;;;;3.75;2.00;;;;;;;;5070379;28;8855;-72
2023/09/30 09:52:28;;;;;;;;;2.75;2.75;;;;;;;;5069123;28;8871;-71
2023/09/30 09:54:57;;;;;;;;;1.50;1.50;;;;;;;;5069557;28;8863;-71
2023/09/30 09:57:25;;;;;;;;;2.00;2.00;;;;;;;;5070480;28;8844;-72
2023/09/30 09:59:55;;;;;;;;;2.60;1.00;;;;;;;;5070450;28;8851;-76
2023/09/30 10:02:23;;;;;;;;;4.60;4.40;;;;;;;;5059349;28;8799;-71
2023/09/30 10:04:50;;;;;;;;;2.80;2.80;;;;;;;;5069429;28;8846;-75
2023/09/30 10:07:22;;;;;;;;;4.60;2.00;;;;;;;;5065507;28;8875;-72
2023/09/30 10:09:52;;;;;;;;;3.40;2.00;;;;;;;;5069227;28;8963;-73
2023/09/30 10:12:21;;;;;;;;;3.00;2.60;;;;;;;;5073639;28;8861;-73
2023/09/30 10:14:48;;;;;;;;;4.80;1.60;;;;;;;;5072245;28;8877;-76
2023/09/30 10:17:16;;;;;;;;;4.00;1.40;;;;;;;;5072121;28;8831;-71
2023/09/30 10:20:05;;;;;;;;;1.80;1.80;;;;;;;;5073427;28;8862;-73
2023/09/30 10:22:34;;;;;;;;;2.60;1.80;;;;;;;;5068865;28;8835;-72
2023/09/30 10:25:05;;;;;;;;;4.40;2.20;;;;;;;;5071530;28;8851;-77
2023/09/30 10:27:34;;;;;;;;;3.00;3.00;;;;;;;;5070195;28;9738;-76
2023/09/30 10:30:10;;;;;;;;;1.20;1.00;;;;;;;;5070252;28;8859;-81
2023/09/30 10:33:09;;;;;;;;;2.80;2.20;;;;;;;;5069940;28;8818;-78
2023/09/30 10:35:49;;;;;;;;;3.00;1.80;;;;;;;;5066741;28;8851;-74
2023/09/30 10:38:42;;;;;;;;;3.00;3.00;;;;;;;;5069720;28;8839;-72
2023/09/30 10:41:11;;;;;;;;;4.60;2.60;;;;;;;;5068621;28;8858;-84
2023/09/30 10:43:40;;;;;;;;;1.20;1.20;;;;;;;;5069160;28;8878;-80
2023/09/30 10:46:42;;;;;;;;;0.20;0.20;;;;;;;;5070310;28;8890;-88
2023/09/30 10:49:32;;;;;;;;;1.60;1.60;;;;;;;;5062875;28;8849;-74
2023/09/30 10:52:00;;;;;;;;;1.40;1.40;;;;;;;;5069324;28;8846;-83
2023/09/30 10:54:32;;;;;;;;;1.00;1.00;;;;;;;;5069770;28;8909;-78
2023/09/30 10:57:00;;;;;;;;;2.80;1.60;;;;;;;;5068711;28;8862;-82
2023/09/30 10:59:31;;;;;;;;;3.40;2.00;;;;;;;;5069247;28;8863;-83
2023/09/30 11:01:58;;;;;;;;;1.60;1.60;;;;;;;;5068587;28;9619;-77
2023/09/30 11:04:29;;;;;;;;;2.00;1.20;;;;;;;;5068840;28;8863;-73
2023/09/30 11:06:57;;;;;;;;;1.00;1.00;;;;;;;;5066123;28;8839;-76
2023/09/30 11:09:24;;;;;;;;;1.00;1.00;;;;;;;;5068710;28;9800;-75
2023/09/30 11:11:54;;;;;;;;;6.80;4.20;;;;;;;;5068327;28;8969;-74
2023/09/30 11:14:23;;;;;;;;;1.20;1.20;;;;;;;;5068612;28;9683;-70
2023/09/30 11:16:51;;;;;;;;;3.00;3.00;;;;;;;;5068493;28;8868;-75
2023/09/30 11:19:20;;;;;;;;;3.20;1.80;;;;;;;;5068967;28;9724;-77
2023/09/30 11:21:49;;;;;;;;;3.00;3.00;;;;;;;;5068479;28;8882;-80
2023/09/30 11:24:16;;;;;;;;;0.80;0.80;;;;;;;;5068502;28;8908;-72
2023/09/30 11:26:44;;;;;;;;;1.40;1.40;;;;;;;;5068311;28;9707;-75
2023/09/30 11:29:15;;;;;;;;;4.60;0.40;;;;;;;;5068248;28;8838;-71
2023/09/30 11:31:44;;;;;;;;;2.20;1.60;;;;;;;;5059215;28;8803;-72
2023/09/30 11:34:14;;;;;;;;;0.80;0.80;;;;;;;;5068285;28;8869;-76
2023/09/30 11:36:48;;;;;;;;;1.60;1.60;;;;;;;;5068447;28;8892;-72
2023/09/30 11:39:23;;;;;;;;;2.00;2.00;;;;;;;;5065129;28;8876;-74
2023/09/30 11:41:50;;;;;;;;;2.60;2.60;;;;;;;;5068257;28;9664;-73
2023/09/30 11:44:20;;;;;;;;;1.00;1.00;;;;;;;;5068611;28;8894;-73
2023/09/30 11:46:52;;;;;;;;;2.20;2.00;;;;;;;;5067958;28;8981;-72
2023/09/30 11:49:29;;;;;;;;;2.00;1.80;;;;;;;;5069354;28;8863;-75
2023/09/30 11:51:58;;;;;;;;;2.80;2.80;;;;;;;;5070869;28;8942;-72
2023/09/30 11:54:33;;;;;;;;;2.60;2.00;;;;;;;;5071729;28;8857;-74
2023/09/30 11:57:01;;;;;;;;;2.20;2.20;;;;;;;;5071435;28;8855;-73
2023/09/30 11:59:32;;;;;;;;;2.80;2.80;;;;;;;;5072386;28;8858;-75
2023/09/30 12:02:00;;;;;;;;;2.80;2.80;;;;;;;;5070648;28;9708;-74
2023/09/30 12:04:27;;;;;;;;;1.40;1.40;;;;;;;;5067852;28;8877;-72
2023/09/30 12:06:54;;;;;;;;;1.20;1.20;;;;;;;;5067252;28;8842;-72
2023/09/30 12:09:25;;;;;;;;;4.40;2.40;;;;;;;;5068462;28;8873;-76
2023/09/30 12:11:52;;;;;;;;;3.00;1.80;;;;;;;;5065888;28;8874;-73
2023/09/30 12:14:20;;;;;;;;;3.60;1.20;;;;;;;;5067598;28;8848;-76
2023/09/30 12:16:50;;;;;;;;;3.20;1.40;;;;;;;;5066927;28;9581;-76
2023/09/30 12:19:18;;;;;;;;;2.80;2.80;;;;;;;;5067483;28;8846;-82
2023/09/30 12:21:47;;;;;;;;;3.40;2.40;;;;;;;;5067166;28;8952;-73
2023/09/30 12:24:17;;;;;;;;;7.80;4.00;;;;;;;;5066976;28;8867;-73
2023/09/30 12:26:47;;;;;;;;;3.00;3.00;;;;;;;;5067489;28;8955;-73
2023/09/30 12:29:16;;;;;;;;;3.00;1.60;;;;;;;;5067232;28;8849;-74
2023/09/30 12:31:44;;;;;;;;;2.20;2.20;;;;;;;;5067412;28;8821;-75
2023/09/30 12:34:14;;;;;;;;;3.40;3.40;;;;;;;;5067639;28;9629;-72
2023/09/30 12:36:41;;;;;;;;;2.00;2.00;;;;;;;;5066301;28;8874;-81
2023/09/30 12:39:11;;;;;;;;;3.60;2.60;;;;;;;;5065301;28;8895;-79
2023/09/30 12:41:38;;;;;;;;;3.00;3.00;;;;;;;;5077373;28;8860;-83
2023/09/30 12:44:06;;;;;;;;;2.60;2.00;;;;;;;;5067551;28;8955;-82
2023/09/30 12:46:36;;;;;;;;;3.40;1.00;;;;;;;;5067334;28;8929;-80
2023/09/30 12:49:07;;;;;;;;;3.00;3.00;;;;;;;;5065150;28;8857;-78
2023/09/30 12:51:36;;;;;;;;;2.00;2.00;;;;;;;;5064551;28;8858;-76
2023/09/30 12:54:04;;;;;;;;;2.60;2.60;;;;;;;;5068893;28;8953;-74
2023/09/30 12:56:32;;;;;;;;;2.60;2.60;;;;;;;;5067727;28;9282;-76
2023/09/30 12:59:03;;;;;;;;;0.60;0.00;;;;;;;;5067307;28;8897;-79
2023/09/30 13:01:31;;;;;;;;;4.00;2.60;;;;;;;;5066917;28;8837;-78
2023/09/30 13:03:58;;;;;;;;;4.60;1.60;;;;;;;;5067118;28;8861;-74
2023/09/30 13:06:26;;;;;;;;;1.00;1.00;;;;;;;;5067284;28;8862;-81
2023/09/30 13:08:54;;;;;;;;;3.00;1.00;;;;;;;;5067037;28;8882;-81
2023/09/30 13:11:22;;;;;;;;;4.40;4.40;;;;;;;;5066746;28;9636;-81
2023/09/30 13:13:49;;;;;;;;;3.20;3.20;;;;;;;;5061168;28;9615;-79
2023/09/30 13:16:16;;;;;;;;;2.40;2.40;;;;;;;;5071180;28;8855;-79
2023/09/30 13:18:43;;;;;;;;;2.00;2.00;;;;;;;;5071155;28;8885;-74
2023/09/30 13:21:12;;;;;;;;;3.60;3.40;;;;;;;;5071257;28;8874;-76
2023/09/30 13:23:39;;;;;;;;;5.20;2.00;;;;;;;;5071586;28;8879;-74
2023/09/30 13:26:07;;;;;;;;;6.60;4.80;;;;;;;;5070785;28;8865;-72
2023/09/30 13:28:35;;;;;;;;;4.60;2.40;;;;;;;;5071490;28;8982;-74
2023/09/30 13:31:02;;;;;;;;;4.60;2.80;;;;;;;;5072071;28;8916;-72
2023/09/30 13:33:29;;;;;;;;;3.40;3.40;;;;;;;;5074631;28;8976;-74
2023/09/30 13:35:56;;;;;;;;;2.60;2.60;;;;;;;;5074025;28;9379;-72
2023/09/30 13:38:23;;;;;;;;;4.00;2.00;;;;;;;;5074697;28;8863;-76
2023/09/30 13:40:51;;;;;;;;;4.80;4.20;;;;;;;;5071064;28;8851;-75
2023/09/30 13:43:20;;;;;;;;;3.80;2.40;;;;;;;;5072615;28;8856;-82
2023/09/30 13:45:48;;;;;;;;;3.00;3.00;;;;;;;;5070439;28;8830;-79
2023/09/30 13:48:15;;;;;;;;;2.00;2.00;;;;;;;;5070730;28;8891;-78
2023/09/30 13:50:43;;;;;;;;;4.00;4.00;;;;;;;;5071967;28;8842;-74
2023/09/30 13:53:10;;;;;;;;;5.80;3.00;;;;;;;;5071518;28;9014;-79
2023/09/30 13:55:39;;;;;;;;;3.00;3.00;;;;;;;;5070388;28;9638;-73
2023/09/30 13:58:06;;;;;;;;;2.00;2.00;;;;;;;;5070042;28;8850;-77
2023/09/30 14:00:35;;;;;;;;;3.00;3.00;;;;;;;;5069472;28;8921;-79
2023/09/30 14:03:02;;;;;;;;;4.20;2.60;;;;;;;;5069593;28;8843;-77
2023/09/30 14:05:29;;;;;;;;;3.60;3.60;;;;;;;;5069944;28;8936;-78
2023/09/30 14:07:57;;;;;;;;;1.20;1.20;;;;;;;;5070373;28;8851;-84
2023/09/30 14:10:25;;;;;;;;;6.60;4.60;;;;;;;;5071275;28;8913;-79
2023/09/30 14:12:52;;;;;;;;;4.20;3.40;;;;;;;;5071331;28;8889;-78
2023/09/30 14:15:20;;;;;;;;;3.40;3.20;;;;;;;;5070924;28;8855;-80
2023/09/30 14:17:49;;;;;;;;;5.20;3.80;;;;;;;;5069604;28;8885;-79
2023/09/30 14:20:16;;;;;;;;;4.20;4.00;;;;;;;;5069463;28;8839;-79
2023/09/30 14:22:43;;;;;;;;;4.20;4.20;;;;;;;;5069454;28;8835;-77
2023/09/30 14:25:10;;;;;;;;;5.40;3.20;;;;;;;;5069502;28;8854;-79
2023/09/30 14:27:38;;;;;;;;;2.60;2.00;;;;;;;;5069508;28;8912;-75
2023/09/30 14:30:08;;;;;;;;;1.80;1.00;;;;;;;;5069263;28;8851;-74
2023/09/30 14:32:35;;;;;;;;;3.20;3.20;;;;;;;;5069090;28;8850;-76
2023/09/30 14:35:05;;;;;;;;;5.20;3.00;;;;;;;;5069301;28;8839;-79
2023/09/30 14:37:32;;;;;;;;;3.80;3.80;;;;;;;;5064081;28;8849;-79
2023/09/30 14:39:59;;;;;;;;;1.60;0.80;;;;;;;;5067094;28;8977;-74
2023/09/30 14:42:27;;;;;;;;;4.20;4.00;;;;;;;;5069391;28;8863;-78
2023/09/30 14:44:54;;;;;;;;;4.40;4.40;;;;;;;;5068944;28;8851;-78
2023/09/30 14:47:22;;;;;;;;;4.00;2.40;;;;;;;;5068655;28;8909;-75
2023/09/30 14:49:49;;;;;;;;;4.00;4.00;;;;;;;;5069345;28;8865;-77
2023/09/30 14:52:17;;;;;;;;;3.80;3.80;;;;;;;;5069065;28;8864;-76
2023/09/30 14:54:44;;;;;;;;;4.80;3.00;;;;;;;;5069490;28;8904;-72
2023/09/30 14:57:13;;;;;;;;;3.80;3.00;;;;;;;;5069678;28;8863;-82
2023/09/30 14:59:40;;;;;;;;;4.60;3.20;;;;;;;;5068946;28;8874;-77